sensor_id;sensor_type;location;lat;lon;timestamp;pressure;altitude;pressure_sealevel;temperature;humidity
32733;BME280;11867;51.198;11.966;2023-03-12T00:00:47;100148.47;;;-0.10;82.56
32733;BME280;11867;51.198;11.966;2023-03-12T00:01:49;100161.47;;;0.18;81.99
32733;BME280;11867;51.198;11.966;2023-03-12T00:02:51;100156.13;;;0.18;81.25
32733;BME280;11867;51.198;11.966;2023-03-12T00:03:53;100155.00;;;0.01;81.49
32733;BME280;11867;51.198;11.966;2023-03-12T00:04:55;100161.06;;;-0.17;82.14
32733;BME280;11867;51.198;11.966;2023-03-12T00:05:58;100158.53;;;-0.05;82.80
32733;BME280;11867;51.198;11.966;2023-03-12T00:07:10;100162.78;;;-0.29;82.12
32733;BME280;11867;51.198;11.966;2023-03-12T00:08:14;100167.66;;;-0.58;84.12
32733;BME280;11867;51.198;11.966;2023-03-12T00:09:16;100162.22;;;-0.38;83.96
32733;BME280;11867;51.198;11.966;2023-03-12T00:10:18;100167.25;;;-0.10;83.04
32733;BME280;11867;51.198;11.966;2023-03-12T00:11:20;100168.69;;;-0.14;81.97
32733;BME280;11867;51.198;11.966;2023-03-12T00:12:23;100177.03;;;-0.29;82.75
32733;BME280;11867;51.198;11.966;2023-03-12T00:13:25;100167.13;;;-0.28;82.70
32733;BME280;11867;51.198;11.966;2023-03-12T00:14:27;100174.22;;;-0.47;82.45
32733;BME280;11867;51.198;11.966;2023-03-12T00:15:29;100178.59;;;-0.14;82.54
32733;BME280;11867;51.198;11.966;2023-03-12T00:16:32;100177.81;;;-0.22;82.23
32733;BME280;11867;51.198;11.966;2023-03-12T00:17:35;100170.53;;;-0.08;81.65
32733;BME280;11867;51.198;11.966;2023-03-12T00:18:37;100171.72;;;-0.42;82.14
32733;BME280;11867;51.198;11.966;2023-03-12T00:19:40;100169.28;;;-0.50;82.42
32733;BME280;11867;51.198;11.966;2023-03-12T00:20:41;100173.97;;;-0.39;82.60
32733;BME280;11867;51.198;11.966;2023-03-12T00:21:44;100171.53;;;-0.02;81.85
32733;BME280;11867;51.198;11.966;2023-03-12T00:22:46;100173.06;;;0.12;80.78
32733;BME280;11867;51.198;11.966;2023-03-12T00:23:50;100170.66;;;0.04;80.33
32733;BME280;11867;51.198;11.966;2023-03-12T00:24:54;100168.25;;;-0.11;80.65
32733;BME280;11867;51.198;11.966;2023-03-12T00:26:00;100180.88;;;-0.18;81.31
32733;BME280;11867;51.198;11.966;2023-03-12T00:27:02;100178.53;;;-0.01;81.01
32733;BME280;11867;51.198;11.966;2023-03-12T00:28:05;100177.56;;;0.18;80.39
32733;BME280;11867;51.198;11.966;2023-03-12T00:29:06;100177.31;;;-0.05;79.93
32733;BME280;11867;51.198;11.966;2023-03-12T00:30:10;100175.97;;;-0.28;80.92
32733;BME280;11867;51.198;11.966;2023-03-12T00:31:14;100182.81;;;0.07;80.39
32733;BME280;11867;51.198;11.966;2023-03-12T00:32:17;100182.31;;;-0.15;80.11
32733;BME280;11867;51.198;11.966;2023-03-12T00:33:18;100185.19;;;-0.10;81.43
32733;BME280;11867;51.198;11.966;2023-03-12T00:34:21;100187.72;;;-0.22;81.30
32733;BME280;11867;51.198;11.966;2023-03-12T00:35:23;100185.78;;;-0.53;81.85
32733;BME280;11867;51.198;11.966;2023-03-12T00:36:28;100184.69;;;-0.39;82.66
32733;BME280;11867;51.198;11.966;2023-03-12T00:37:30;100186.19;;;-0.11;81.90
32733;BME280;11867;51.198;11.966;2023-03-12T00:38:33;100184.59;;;0.19;80.75
32733;BME280;11867;51.198;11.966;2023-03-12T00:39:36;100188.38;;;0.05;80.15
32733;BME280;11867;51.198;11.966;2023-03-12T00:40:39;100178.66;;;0.11;79.89
32733;BME280;11867;51.198;11.966;2023-03-12T00:41:40;100182.03;;;0.31;79.66
32733;BME280;11867;51.198;11.966;2023-03-12T00:42:43;100185.03;;;-0.22;80.55
32733;BME280;11867;51.198;11.966;2023-03-12T00:43:44;100177.38;;;-0.18;80.81
32733;BME280;11867;51.198;11.966;2023-03-12T00:44:47;100181.19;;;-0.01;80.85
32733;BME280;11867;51.198;11.966;2023-03-12T00:45:49;100178.63;;;0.17;79.96
32733;BME280;11867;51.198;11.966;2023-03-12T00:46:51;100188.28;;;0.25;79.37
32733;BME280;11867;51.198;11.966;2023-03-12T00:47:53;100178.75;;;0.29;79.32
32733;BME280;11867;51.198;11.966;2023-03-12T00:48:55;100184.81;;;0.43;78.81
32733;BME280;11867;51.198;11.966;2023-03-12T00:49:57;100184.00;;;0.68;78.12
32733;BME280;11867;51.198;11.966;2023-03-12T00:50:59;100189.56;;;0.73;77.36
32733;BME280;11867;51.198;11.966;2023-03-12T00:52:03;100179.97;;;0.58;77.33
32733;BME280;11867;51.198;11.966;2023-03-12T00:53:05;100183.50;;;0.27;78.22
32733;BME280;11867;51.198;11.966;2023-03-12T00:54:08;100183.19;;;0.42;78.28
32733;BME280;11867;51.198;11.966;2023-03-12T00:55:11;100181.97;;;0.13;79.73
32733;BME280;11867;51.198;11.966;2023-03-12T00:56:14;100178.31;;;0.32;79.14
32733;BME280;11867;51.198;11.966;2023-03-12T00:57:16;100184.53;;;-0.06;79.81
32733;BME280;11867;51.198;11.966;2023-03-12T00:58:18;100176.81;;;0.11;80.28
32733;BME280;11867;51.198;11.966;2023-03-12T00:59:20;100176.22;;;0.34;79.67
32733;BME280;11867;51.198;11.966;2023-03-12T01:00:22;100184.84;;;0.11;79.66
32733;BME280;11867;51.198;11.966;2023-03-12T01:01:24;100173.78;;;-0.44;80.24
32733;BME280;11867;51.198;11.966;2023-03-12T01:02:27;100182.91;;;-0.58;81.81
32733;BME280;11867;51.198;11.966;2023-03-12T01:03:29;100177.06;;;-0.42;82.12
32733;BME280;11867;51.198;11.966;2023-03-12T01:04:32;100186.69;;;-0.28;81.58
32733;BME280;11867;51.198;11.966;2023-03-12T01:05:33;100182.06;;;-0.07;81.05
32733;BME280;11867;51.198;11.966;2023-03-12T01:06:38;100182.38;;;-0.35;81.32
32733;BME280;11867;51.198;11.966;2023-03-12T01:07:39;100184.81;;;-0.21;82.01
32733;BME280;11867;51.198;11.966;2023-03-12T01:08:42;100180.19;;;0.00;80.95
32733;BME280;11867;51.198;11.966;2023-03-12T01:09:44;100184.84;;;0.11;80.25
32733;BME280;11867;51.198;11.966;2023-03-12T01:10:48;100180.69;;;0.15;80.45
32733;BME280;11867;51.198;11.966;2023-03-12T01:11:50;100185.69;;;0.05;80.74
32733;BME280;11867;51.198;11.966;2023-03-12T01:12:53;100189.38;;;0.11;80.17
32733;BME280;11867;51.198;11.966;2023-03-12T01:13:54;100184.09;;;-0.41;80.76
32733;BME280;11867;51.198;11.966;2023-03-12T01:14:57;100189.66;;;-0.43;81.77
32733;BME280;11867;51.198;11.966;2023-03-12T01:15:58;100188.94;;;-0.76;82.60
32733;BME280;11867;51.198;11.966;2023-03-12T01:17:01;100182.78;;;-0.90;83.18
32733;BME280;11867;51.198;11.966;2023-03-12T01:18:03;100187.72;;;-0.87;84.30
32733;BME280;11867;51.198;11.966;2023-03-12T01:19:05;100186.69;;;-0.99;83.93
32733;BME280;11867;51.198;11.966;2023-03-12T01:20:08;100188.38;;;-1.12;85.18
32733;BME280;11867;51.198;11.966;2023-03-12T01:21:11;100190.59;;;-0.95;85.30
32733;BME280;11867;51.198;11.966;2023-03-12T01:22:14;100194.69;;;-0.73;85.08
32733;BME280;11867;51.198;11.966;2023-03-12T01:23:16;100191.50;;;-0.43;83.54
32733;BME280;11867;51.198;11.966;2023-03-12T01:24:18;100180.44;;;-0.67;82.64
32733;BME280;11867;51.198;11.966;2023-03-12T01:25:20;100187.22;;;-0.64;83.75
32733;BME280;11867;51.198;11.966;2023-03-12T01:26:24;100190.59;;;-0.82;84.09
32733;BME280;11867;51.198;11.966;2023-03-12T01:27:25;100190.06;;;-0.46;83.79
32733;BME280;11867;51.198;11.966;2023-03-12T01:28:28;100188.06;;;-0.64;82.95
32733;BME280;11867;51.198;11.966;2023-03-12T01:29:30;100189.56;;;-0.74;83.86
32733;BME280;11867;51.198;11.966;2023-03-12T01:30:32;100189.22;;;-0.39;83.35
32733;BME280;11867;51.198;11.966;2023-03-12T01:31:35;100185.84;;;-0.22;82.53
32733;BME280;11867;51.198;11.966;2023-03-12T01:32:37;100184.28;;;-0.43;81.64
32733;BME280;11867;51.198;11.966;2023-03-12T01:33:39;100188.75;;;-0.88;83.26
32733;BME280;11867;51.198;11.966;2023-03-12T01:34:42;100182.94;;;-0.72;83.75
32733;BME280;11867;51.198;11.966;2023-03-12T01:35:44;100182.50;;;-0.62;83.15
32733;BME280;11867;51.198;11.966;2023-03-12T01:36:46;100184.53;;;-0.51;83.31
32733;BME280;11867;51.198;11.966;2023-03-12T01:37:48;100185.31;;;-0.37;81.94
32733;BME280;11867;51.198;11.966;2023-03-12T01:38:52;100182.31;;;-0.15;81.69
32733;BME280;11867;51.198;11.966;2023-03-12T01:39:54;100181.59;;;0.03;80.51
32733;BME280;11867;51.198;11.966;2023-03-12T01:40:56;100177.16;;;0.22;79.91
32733;BME280;11867;51.198;11.966;2023-03-12T01:41:59;100178.22;;;0.14;79.49
32733;BME280;11867;51.198;11.966;2023-03-12T01:43:22;100188.63;;;0.29;78.95
32733;BME280;11867;51.198;11.966;2023-03-12T01:44:25;100177.59;;;-0.20;80.73
32733;BME280;11867;51.198;11.966;2023-03-12T01:46:01;100188.47;;;-0.08;80.58
32733;BME280;11867;51.198;11.966;2023-03-12T01:47:04;100181.06;;;-0.13;80.70
32733;BME280;11867;51.198;11.966;2023-03-12T01:48:06;100177.88;;;0.04;80.63
32733;BME280;11867;51.198;11.966;2023-03-12T01:49:10;100177.03;;;-0.35;80.88
32733;BME280;11867;51.198;11.966;2023-03-12T01:50:14;100181.13;;;-0.26;81.16
32733;BME280;11867;51.198;11.966;2023-03-12T01:51:16;100168.66;;;-0.07;81.10
32733;BME280;11867;51.198;11.966;2023-03-12T01:52:21;100179.28;;;0.13;80.35
32733;BME280;11867;51.198;11.966;2023-03-12T01:53:23;100169.53;;;0.18;79.25
32733;BME280;11867;51.198;11.966;2023-03-12T01:54:29;100178.16;;;0.27;78.88
32733;BME280;11867;51.198;11.966;2023-03-12T01:55:34;100169.25;;;0.27;78.50
32733;BME280;11867;51.198;11.966;2023-03-12T01:56:37;100175.22;;;0.29;78.18
32733;BME280;11867;51.198;11.966;2023-03-12T01:57:44;100169.09;;;0.22;78.90
32733;BME280;11867;51.198;11.966;2023-03-12T01:58:50;100170.47;;;0.31;78.41
32733;BME280;11867;51.198;11.966;2023-03-12T01:59:57;100165.44;;;0.41;77.92
32733;BME280;11867;51.198;11.966;2023-03-12T02:01:01;100170.38;;;0.44;78.14
32733;BME280;11867;51.198;11.966;2023-03-12T02:02:03;100168.34;;;0.08;79.32
32733;BME280;11867;51.198;11.966;2023-03-12T02:03:07;100166.59;;;-0.05;79.80
32733;BME280;11867;51.198;11.966;2023-03-12T02:04:11;100166.44;;;-0.10;80.47
32733;BME280;11867;51.198;11.966;2023-03-12T02:05:18;100173.69;;;-0.24;81.25
32733;BME280;11867;51.198;11.966;2023-03-12T02:06:27;100161.06;;;-0.55;81.21
32733;BME280;11867;51.198;11.966;2023-03-12T02:07:33;100160.94;;;-0.87;82.51
32733;BME280;11867;51.198;11.966;2023-03-12T02:08:37;100168.13;;;-0.81;83.00
32733;BME280;11867;51.198;11.966;2023-03-12T02:09:42;100171.28;;;-0.91;83.58
32733;BME280;11867;51.198;11.966;2023-03-12T02:10:45;100163.88;;;-1.09;84.05
32733;BME280;11867;51.198;11.966;2023-03-12T02:11:46;100163.66;;;-1.00;84.22
32733;BME280;11867;51.198;11.966;2023-03-12T02:12:51;100171.47;;;-0.92;84.01
32733;BME280;11867;51.198;11.966;2023-03-12T02:13:52;100170.34;;;-0.65;83.42
32733;BME280;11867;51.198;11.966;2023-03-12T02:14:55;100163.06;;;-0.44;82.35
32733;BME280;11867;51.198;11.966;2023-03-12T02:15:57;100161.38;;;-0.32;81.54
32733;BME280;11867;51.198;11.966;2023-03-12T02:16:59;100157.53;;;-0.11;81.32
32733;BME280;11867;51.198;11.966;2023-03-12T02:18:01;100159.75;;;-0.33;80.93
32733;BME280;11867;51.198;11.966;2023-03-12T02:19:12;100160.50;;;-0.26;81.20
32733;BME280;11867;51.198;11.966;2023-03-12T02:20:21;100166.00;;;-0.59;81.46
32733;BME280;11867;51.198;11.966;2023-03-12T02:21:30;100165.63;;;-0.69;82.20
32733;BME280;11867;51.198;11.966;2023-03-12T02:22:34;100166.94;;;-0.98;83.33
32733;BME280;11867;51.198;11.966;2023-03-12T02:23:41;100173.88;;;-0.71;83.30
32733;BME280;11867;51.198;11.966;2023-03-12T02:24:48;100166.94;;;-0.92;83.20
32733;BME280;11867;51.198;11.966;2023-03-12T02:25:57;100168.81;;;-0.99;83.96
32733;BME280;11867;51.198;11.966;2023-03-12T02:27:01;100170.41;;;-0.78;84.07
32733;BME280;11867;51.198;11.966;2023-03-12T02:28:07;100166.91;;;-0.78;83.65
32733;BME280;11867;51.198;11.966;2023-03-12T02:29:09;100177.66;;;-0.98;83.51
32733;BME280;11867;51.198;11.966;2023-03-12T02:30:13;100171.44;;;-0.79;83.94
32733;BME280;11867;51.198;11.966;2023-03-12T02:31:18;100183.78;;;-0.78;82.67
32733;BME280;11867;51.198;11.966;2023-03-12T02:32:26;100179.56;;;-0.47;82.64
32733;BME280;11867;51.198;11.966;2023-03-12T02:33:28;100177.09;;;-0.49;81.57
32733;BME280;11867;51.198;11.966;2023-03-12T02:34:31;100178.72;;;-0.48;82.08
32733;BME280;11867;51.198;11.966;2023-03-12T02:35:32;100177.19;;;-0.24;81.12
32733;BME280;11867;51.198;11.966;2023-03-12T02:36:36;100184.31;;;-0.04;80.31
32733;BME280;11867;51.198;11.966;2023-03-12T02:37:46;100181.97;;;-0.32;80.57
32733;BME280;11867;51.198;11.966;2023-03-12T02:38:50;100174.31;;;-0.74;81.25
32733;BME280;11867;51.198;11.966;2023-03-12T02:39:56;100180.75;;;-0.36;81.38
32733;BME280;11867;51.198;11.966;2023-03-12T02:41:04;100178.91;;;-0.36;80.91
32733;BME280;11867;51.198;11.966;2023-03-12T02:42:10;100177.19;;;-0.24;79.96
32733;BME280;11867;51.198;11.966;2023-03-12T02:43:13;100182.47;;;-0.04;79.04
32733;BME280;11867;51.198;11.966;2023-03-12T02:44:17;100161.53;;;0.12;78.19
32733;BME280;11867;51.198;11.966;2023-03-12T02:45:20;100171.69;;;0.35;77.64
32733;BME280;11867;51.198;11.966;2023-03-12T02:46:22;100176.19;;;0.41;77.59
32733;BME280;11867;51.198;11.966;2023-03-12T02:47:25;100171.06;;;0.33;76.98
32733;BME280;11867;51.198;11.966;2023-03-12T02:48:28;100178.97;;;0.28;77.25
32733;BME280;11867;51.198;11.966;2023-03-12T02:49:32;100164.25;;;0.37;77.09
32733;BME280;11867;51.198;11.966;2023-03-12T02:50:35;100170.06;;;0.34;76.82
32733;BME280;11867;51.198;11.966;2023-03-12T02:51:36;100177.63;;;0.44;76.80
32733;BME280;11867;51.198;11.966;2023-03-12T02:52:39;100175.47;;;0.27;77.05
32733;BME280;11867;51.198;11.966;2023-03-12T02:53:41;100183.78;;;0.12;77.63
32733;BME280;11867;51.198;11.966;2023-03-12T02:54:43;100178.97;;;-0.04;78.27
32733;BME280;11867;51.198;11.966;2023-03-12T02:55:46;100184.00;;;-0.28;79.98
32733;BME280;11867;51.198;11.966;2023-03-12T02:56:49;100188.97;;;-0.31;79.97
32733;BME280;11867;51.198;11.966;2023-03-12T02:57:52;100176.78;;;-0.21;79.51
32733;BME280;11867;51.198;11.966;2023-03-12T02:58:54;100190.91;;;-0.07;79.21
32733;BME280;11867;51.198;11.966;2023-03-12T02:59:57;100187.66;;;-0.15;79.34
32733;BME280;11867;51.198;11.966;2023-03-12T03:00:58;100191.28;;;0.04;79.19
32733;BME280;11867;51.198;11.966;2023-03-12T03:02:01;100193.22;;;-0.17;79.18
32733;BME280;11867;51.198;11.966;2023-03-12T03:03:04;100186.81;;;-0.09;79.32
32733;BME280;11867;51.198;11.966;2023-03-12T03:04:08;100186.13;;;0.02;78.66
32733;BME280;11867;51.198;11.966;2023-03-12T03:05:22;100187.63;;;-0.02;78.23
32733;BME280;11867;51.198;11.966;2023-03-12T03:06:24;100182.16;;;-0.27;78.89
32733;BME280;11867;51.198;11.966;2023-03-12T03:07:27;100184.13;;;-0.54;79.44
32733;BME280;11867;51.198;11.966;2023-03-12T03:08:29;100189.81;;;-0.31;79.66
32733;BME280;11867;51.198;11.966;2023-03-12T03:09:31;100189.97;;;-0.26;79.30
32733;BME280;11867;51.198;11.966;2023-03-12T03:10:34;100192.63;;;-0.12;78.60
32733;BME280;11867;51.198;11.966;2023-03-12T03:11:36;100194.44;;;-0.06;77.91
32733;BME280;11867;51.198;11.966;2023-03-12T03:12:40;100188.28;;;-0.13;77.49
32733;BME280;11867;51.198;11.966;2023-03-12T03:13:41;100195.88;;;-0.04;77.65
32733;BME280;11867;51.198;11.966;2023-03-12T03:14:44;100185.50;;;0.07;77.49
32733;BME280;11867;51.198;11.966;2023-03-12T03:15:45;100188.78;;;0.09;77.18
32733;BME280;11867;51.198;11.966;2023-03-12T03:16:48;100186.31;;;0.07;77.31
32733;BME280;11867;51.198;11.966;2023-03-12T03:17:51;100181.34;;;0.11;77.26
32733;BME280;11867;51.198;11.966;2023-03-12T03:18:53;100181.97;;;0.06;76.85
32733;BME280;11867;51.198;11.966;2023-03-12T03:19:55;100193.53;;;0.07;77.32
32733;BME280;11867;51.198;11.966;2023-03-12T03:20:59;100190.41;;;0.10;76.73
32733;BME280;11867;51.198;11.966;2023-03-12T03:22:01;100189.91;;;-0.06;76.83
32733;BME280;11867;51.198;11.966;2023-03-12T03:23:04;100191.75;;;-0.06;76.83
32733;BME280;11867;51.198;11.966;2023-03-12T03:24:06;100193.19;;;-0.04;77.04
32733;BME280;11867;51.198;11.966;2023-03-12T03:25:10;100189.19;;;0.06;77.02
32733;BME280;11867;51.198;11.966;2023-03-12T03:26:12;100193.41;;;0.27;76.67
32733;BME280;11867;51.198;11.966;2023-03-12T03:27:15;100185.00;;;0.16;76.50
32733;BME280;11867;51.198;11.966;2023-03-12T03:28:18;100192.09;;;0.04;76.93
32733;BME280;11867;51.198;11.966;2023-03-12T03:29:20;100189.19;;;0.06;77.29
32733;BME280;11867;51.198;11.966;2023-03-12T03:30:22;100188.78;;;0.09;77.21
32733;BME280;11867;51.198;11.966;2023-03-12T03:31:25;100184.25;;;0.09;76.41
32733;BME280;11867;51.198;11.966;2023-03-12T03:32:27;100180.59;;;-0.03;76.74
32733;BME280;11867;51.198;11.966;2023-03-12T03:33:32;100193.66;;;0.18;77.06
32733;BME280;11867;51.198;11.966;2023-03-12T03:34:34;100186.31;;;0.07;76.99
32733;BME280;11867;51.198;11.966;2023-03-12T03:35:37;100192.63;;;0.19;76.91
32733;BME280;11867;51.198;11.966;2023-03-12T03:36:38;100191.78;;;0.26;77.10
32733;BME280;11867;51.198;11.966;2023-03-12T03:37:41;100186.88;;;0.16;76.93
32733;BME280;11867;51.198;11.966;2023-03-12T03:38:43;100193.69;;;0.12;77.60
32733;BME280;11867;51.198;11.966;2023-03-12T03:39:49;100190.00;;;0.13;77.78
32733;BME280;11867;51.198;11.966;2023-03-12T03:40:51;100197.53;;;0.23;77.38
32733;BME280;11867;51.198;11.966;2023-03-12T03:41:54;100190.09;;;0.25;77.25
32733;BME280;11867;51.198;11.966;2023-03-12T03:42:56;100193.22;;;0.22;77.39
32733;BME280;11867;51.198;11.966;2023-03-12T03:43:59;100198.19;;;0.18;77.26
32733;BME280;11867;51.198;11.966;2023-03-12T03:45:01;100202.69;;;0.24;77.46
32733;BME280;11867;51.198;11.966;2023-03-12T03:46:04;100206.91;;;0.13;77.14
32733;BME280;11867;51.198;11.966;2023-03-12T03:47:06;100207.81;;;0.01;77.84
32733;BME280;11867;51.198;11.966;2023-03-12T03:48:09;100207.00;;;0.00;78.38
32733;BME280;11867;51.198;11.966;2023-03-12T03:49:11;100198.66;;;0.08;77.94
32733;BME280;11867;51.198;11.966;2023-03-12T03:50:13;100199.88;;;0.12;78.24
32733;BME280;11867;51.198;11.966;2023-03-12T03:51:15;100201.28;;;0.22;77.73
32733;BME280;11867;51.198;11.966;2023-03-12T03:52:18;100195.31;;;0.19;77.83
32733;BME280;11867;51.198;11.966;2023-03-12T03:53:19;100194.75;;;0.11;78.00
32733;BME280;11867;51.198;11.966;2023-03-12T03:54:22;100200.72;;;0.06;77.84
32733;BME280;11867;51.198;11.966;2023-03-12T03:55:24;100204.81;;;-0.23;77.77
32733;BME280;11867;51.198;11.966;2023-03-12T03:56:27;100206.44;;;-0.15;77.99
32733;BME280;11867;51.198;11.966;2023-03-12T03:57:29;100203.34;;;-0.12;78.16
32733;BME280;11867;51.198;11.966;2023-03-12T03:58:31;100206.59;;;-0.04;78.09
32733;BME280;11867;51.198;11.966;2023-03-12T03:59:34;100204.88;;;0.02;78.08
32733;BME280;11867;51.198;11.966;2023-03-12T04:00:37;100199.72;;;0.07;77.78
32733;BME280;11867;51.198;11.966;2023-03-12T04:01:38;100205.78;;;-0.04;78.03
32733;BME280;11867;51.198;11.966;2023-03-12T04:02:41;100208.00;;;-0.01;78.55
32733;BME280;11867;51.198;11.966;2023-03-12T04:03:43;100203.69;;;-0.02;78.45
32733;BME280;11867;51.198;11.966;2023-03-12T04:04:45;100207.25;;;-0.15;78.50
32733;BME280;11867;51.198;11.966;2023-03-12T04:05:53;100204.97;;;-0.11;78.66
32733;BME280;11867;51.198;11.966;2023-03-12T04:06:56;100211.63;;;-0.21;78.78
32733;BME280;11867;51.198;11.966;2023-03-12T04:07:57;100214.72;;;-0.24;78.60
32733;BME280;11867;51.198;11.966;2023-03-12T04:09:03;100209.94;;;-0.80;80.15
32733;BME280;11867;51.198;11.966;2023-03-12T04:10:05;100209.91;;;-0.67;80.82
32733;BME280;11867;51.198;11.966;2023-03-12T04:11:10;100205.59;;;-0.68;80.73
32733;BME280;11867;51.198;11.966;2023-03-12T04:12:12;100218.13;;;-0.55;81.21
32733;BME280;11867;51.198;11.966;2023-03-12T04:13:14;100214.41;;;-0.47;81.01
32733;BME280;11867;51.198;11.966;2023-03-12T04:14:16;100204.44;;;-0.33;80.56
32733;BME280;11867;51.198;11.966;2023-03-12T04:15:20;100214.44;;;-0.09;79.88
32733;BME280;11867;51.198;11.966;2023-03-12T04:16:22;100212.84;;;-0.23;79.90
32733;BME280;11867;51.198;11.966;2023-03-12T04:17:25;100214.09;;;-0.26;80.12
32733;BME280;11867;51.198;11.966;2023-03-12T04:18:26;100215.84;;;-0.51;80.59
32733;BME280;11867;51.198;11.966;2023-03-12T04:19:29;100213.94;;;-0.31;80.70
32733;BME280;11867;51.198;11.966;2023-03-12T04:20:31;100219.78;;;-0.09;80.03
32733;BME280;11867;51.198;11.966;2023-03-12T04:21:33;100214.78;;;0.02;79.42
32733;BME280;11867;51.198;11.966;2023-03-12T04:22:35;100217.19;;;0.16;79.25
32733;BME280;11867;51.198;11.966;2023-03-12T04:23:38;100200.47;;;0.21;78.63
32733;BME280;11867;51.198;11.966;2023-03-12T04:24:40;100214.44;;;0.30;78.42
32733;BME280;11867;51.198;11.966;2023-03-12T04:25:42;100211.75;;;0.30;78.00
32733;BME280;11867;51.198;11.966;2023-03-12T04:26:44;100210.78;;;0.17;77.50
32733;BME280;11867;51.198;11.966;2023-03-12T04:27:46;100212.88;;;0.15;77.79
32733;BME280;11867;51.198;11.966;2023-03-12T04:28:48;100204.81;;;0.15;78.00
32733;BME280;11867;51.198;11.966;2023-03-12T04:29:50;100214.09;;;0.19;77.76
32733;BME280;11867;51.198;11.966;2023-03-12T04:30:55;100217.19;;;0.16;77.14
32733;BME280;11867;51.198;11.966;2023-03-12T04:31:59;100217.66;;;0.07;77.59
32733;BME280;11867;51.198;11.966;2023-03-12T04:33:01;100221.56;;;0.04;77.43
32733;BME280;11867;51.198;11.966;2023-03-12T04:34:03;100212.06;;;0.15;77.63
32733;BME280;11867;51.198;11.966;2023-03-12T04:35:05;100218.03;;;0.10;77.16
32733;BME280;11867;51.198;11.966;2023-03-12T04:36:08;100205.41;;;-0.14;77.92
32733;BME280;11867;51.198;11.966;2023-03-12T04:37:11;100216.50;;;-0.04;77.97
32733;BME280;11867;51.198;11.966;2023-03-12T04:38:15;100216.22;;;0.04;78.16
32733;BME280;11867;51.198;11.966;2023-03-12T04:39:17;100203.16;;;0.21;77.83
32733;BME280;11867;51.198;11.966;2023-03-12T04:40:20;100219.09;;;0.09;78.21
32733;BME280;11867;51.198;11.966;2023-03-12T04:41:22;100211.81;;;0.16;77.98
32733;BME280;11867;51.198;11.966;2023-03-12T04:42:25;100211.16;;;0.28;77.86
32733;BME280;11867;51.198;11.966;2023-03-12T04:43:28;100212.09;;;0.40;77.85
32733;BME280;11867;51.198;11.966;2023-03-12T04:44:30;100207.13;;;0.44;77.31
32733;BME280;11867;51.198;11.966;2023-03-12T04:45:32;100208.34;;;0.41;77.48
32733;BME280;11867;51.198;11.966;2023-03-12T04:46:35;100212.41;;;0.25;77.61
32733;BME280;11867;51.198;11.966;2023-03-12T04:47:38;100217.22;;;0.10;78.00
32733;BME280;11867;51.198;11.966;2023-03-12T04:48:40;100216.09;;;0.24;78.12
32733;BME280;11867;51.198;11.966;2023-03-12T04:49:42;100209.75;;;0.18;77.59
32733;BME280;11867;51.198;11.966;2023-03-12T04:50:44;100214.06;;;-0.12;78.53
32733;BME280;11867;51.198;11.966;2023-03-12T04:51:46;100215.38;;;-0.35;79.18
32733;BME280;11867;51.198;11.966;2023-03-12T04:52:48;100205.66;;;-0.23;79.56
32733;BME280;11867;51.198;11.966;2023-03-12T04:53:51;100209.69;;;-0.07;79.45
32733;BME280;11867;51.198;11.966;2023-03-12T04:54:53;100212.06;;;0.08;78.86
32733;BME280;11867;51.198;11.966;2023-03-12T04:55:56;100210.03;;;-0.35;79.63
32733;BME280;11867;51.198;11.966;2023-03-12T04:56:57;100198.41;;;-0.74;80.03
32733;BME280;11867;51.198;11.966;2023-03-12T04:58:00;100208.00;;;-0.46;79.61
32733;BME280;11867;51.198;11.966;2023-03-12T04:59:02;100212.25;;;-0.32;79.93
32733;BME280;11867;51.198;11.966;2023-03-12T05:00:05;100210.72;;;-0.08;79.03
32733;BME280;11867;51.198;11.966;2023-03-12T05:01:20;100212.91;;;0.02;78.64
32733;BME280;11867;51.198;11.966;2023-03-12T05:02:24;100215.22;;;-0.02;77.98
32733;BME280;11867;51.198;11.966;2023-03-12T05:03:26;100212.56;;;-0.02;77.72
32733;BME280;11867;51.198;11.966;2023-03-12T05:04:28;100208.41;;;-0.43;78.93
32733;BME280;11867;51.198;11.966;2023-03-12T05:05:34;100209.41;;;-0.37;78.60
32733;BME280;11867;51.198;11.966;2023-03-12T05:06:36;100203.69;;;-0.54;78.42
32733;BME280;11867;51.198;11.966;2023-03-12T05:07:38;100211.63;;;-0.27;78.99
32733;BME280;11867;51.198;11.966;2023-03-12T05:08:41;100207.31;;;-0.28;77.90
32733;BME280;11867;51.198;11.966;2023-03-12T05:09:42;100205.28;;;-0.33;78.16
32733;BME280;11867;51.198;11.966;2023-03-12T05:10:46;100202.28;;;-0.11;78.42
32733;BME280;11867;51.198;11.966;2023-03-12T05:11:48;100197.13;;;-0.06;78.30
32733;BME280;11867;51.198;11.966;2023-03-12T05:12:50;100204.09;;;-0.05;77.60
32733;BME280;11867;51.198;11.966;2023-03-12T05:13:52;100213.31;;;-0.33;78.01
32733;BME280;11867;51.198;11.966;2023-03-12T05:14:55;100201.84;;;-0.60;79.24
32733;BME280;11867;51.198;11.966;2023-03-12T05:15:56;100186.31;;;-0.38;79.67
32733;BME280;11867;51.198;11.966;2023-03-12T05:16:59;100204.56;;;-0.15;78.74
32733;BME280;11867;51.198;11.966;2023-03-12T05:18:02;100201.34;;;0.08;78.23
32733;BME280;11867;51.198;11.966;2023-03-12T05:19:05;100204.56;;;-0.08;78.56
32733;BME280;11867;51.198;11.966;2023-03-12T05:20:09;100195.97;;;0.08;77.94
32733;BME280;11867;51.198;11.966;2023-03-12T05:21:12;100194.75;;;0.11;77.85
32733;BME280;11867;51.198;11.966;2023-03-12T05:22:16;100196.06;;;0.27;77.13
32733;BME280;11867;51.198;11.966;2023-03-12T05:23:18;100199.81;;;0.26;76.44
32733;BME280;11867;51.198;11.966;2023-03-12T05:24:21;100200.22;;;0.29;76.83
32733;BME280;11867;51.198;11.966;2023-03-12T05:25:23;100195.81;;;0.35;76.43
32733;BME280;11867;51.198;11.966;2023-03-12T05:26:27;100199.44;;;0.47;76.40
32733;BME280;11867;51.198;11.966;2023-03-12T05:27:29;100201.31;;;0.47;76.06
32733;BME280;11867;51.198;11.966;2023-03-12T05:28:32;100200.03;;;0.56;76.03